WetterOnline ( https://www.wetteronline.de )

Wetter aktuell Ledro

Aktuelles Wetter: Paganella (2129m)

6-stündlich | Neueste Meldungen
Ortszeit Temperatur Wetter
Sa, 29.01. 7:00 -6.8° C leicht bewölkt
Sa, 29.01. 1:00 -6.6° C leicht bewölkt
Fr, 28.01. 19:00 -6.6° C wolkenlos
Fr, 28.01. 13:00 -5.0° C wolkenlos
Fr, 28.01. 7:00 -3.3° C fast wolkenlos
Fr, 28.01. 1:00 0.2° C leicht bewölkt
Do, 27.01. 19:00 1.9° C leicht bewölkt
Do, 27.01. 13:00 2.8° C wolkig
Ortszeit Temperatur Wetter
Sa, 29.01. 8:00 -6.6° C leicht bewölkt
Sa, 29.01. 7:00 -6.8° C leicht bewölkt
Sa, 29.01. 6:00 -6.2° C leicht bewölkt
Sa, 29.01. 5:00 -6.2° C leicht bewölkt
Sa, 29.01. 4:00 -6.2° C leicht bewölkt
Sa, 29.01. 3:00 -5.8° C leicht bewölkt
Sa, 29.01. 2:00 -6.0° C leicht bewölkt
Ortszeit Relative Feuchte Sichtweite
Sa, 29.01. 7:00 46% 50 km
Sa, 29.01. 1:00 36% 60 km
Fr, 28.01. 19:00 36% 50 km
Fr, 28.01. 13:00 28% >70 km
Fr, 28.01. 7:00 35% 60 km
Fr, 28.01. 1:00 17% 50 km
Do, 27.01. 19:00 14% 50 km
Do, 27.01. 13:00 15% 70 km
Ortszeit Relative Feuchte Sichtweite
Sa, 29.01. 8:00 44% 50 km
Sa, 29.01. 7:00 46% 50 km
Sa, 29.01. 6:00 38% 50 km
Sa, 29.01. 5:00 37% 10 km
Sa, 29.01. 4:00 42% 10 km
Sa, 29.01. 3:00 37% 50 km
Sa, 29.01. 2:00 37% 50 km
Ortszeit Niederschlagsmenge Niederschlagsart
Sa, 29.01. 7:00 0.0 l/m2 in 12 Std. -
Sa, 29.01. 1:00 0.0 l/m2 in 6 Std. -
Fr, 28.01. 19:00 0.0 l/m2 in 12 Std. -
Fr, 28.01. 13:00 0.0 l/m2 in 6 Std. -
Fr, 28.01. 7:00 0.0 l/m2 in 12 Std. -
Fr, 28.01. 1:00 0.0 l/m2 in 6 Std. -
Do, 27.01. 19:00 0.0 l/m2 in 12 Std. -
Do, 27.01. 13:00 0.0 l/m2 in 6 Std. -
Ortszeit Niederschlagsmenge Niederschlagsart
Sa, 29.01. 8:00 keine Meldung -
Sa, 29.01. 7:00 keine Meldung -
Sa, 29.01. 6:00 keine Meldung -
Sa, 29.01. 5:00 keine Meldung -
Sa, 29.01. 4:00 keine Meldung -
Sa, 29.01. 3:00 keine Meldung -
Sa, 29.01. 2:00 keine Meldung -
Ortszeit Stärke Spitze Richtung
km/h Bft. km/h Grad Sektor
Sa, 29.01. 7:00 11 2 - 330° NW
Sa, 29.01. 1:00 28 4 - 360° N
Fr, 28.01. 19:00 22 4 - 10° N
Fr, 28.01. 13:00 31 5 50 350° N
Fr, 28.01. 7:00 28 4 - 280° W
Fr, 28.01. 1:00 7 2 - 310° NW
Do, 27.01. 19:00 9 2 - 360° N
Do, 27.01. 13:00 7 2 - 30° NO
Ortszeit Stärke Spitze Richtung
km/h Bft. km/h Grad Sektor
Sa, 29.01. 8:00 15 3 - 200° S
Sa, 29.01. 7:00 11 2 - 330° NW
Sa, 29.01. 6:00 13 3 - 330° NW
Sa, 29.01. 5:00 15 3 - 330° NW
Sa, 29.01. 4:00 15 3 - 350° N
Sa, 29.01. 3:00 15 3 - 360° N
Sa, 29.01. 2:00 26 4 - 360° N
Ortszeit Untergrenze Bedeckung Gattung
total tief tief mittel hoch
Sa, 29.01. 7:00 2100 m 2/8 2/8 - Ac -
Sa, 29.01. 1:00 2100 m 3/8 2/8 - Ac Ci
Fr, 28.01. 19:00 - 0/8 0/8 - - -
Fr, 28.01. 13:00 - 0/8 0/8 - - -
Fr, 28.01. 7:00 2100 m 1/8 1/8 - Ac -
Fr, 28.01. 1:00 5400 m 2/8 2/8 - - Ci
Do, 27.01. 19:00 1800 m 5/8 2/8 - Ac Cs
Do, 27.01. 13:00 1800 m 8/8 2/8 - Ac Cs
Ortszeit Bedeckungsgrad in Achtel und Wolkenuntergrenze
Sa, 29.01. 8:00 2(2100m)
Sa, 29.01. 7:00 2(2100m)
Sa, 29.01. 6:00 2(2100m)
Sa, 29.01. 5:00 2(2100m)
Sa, 29.01. 4:00 3(2100m)
Sa, 29.01. 3:00 2(2100m)
Sa, 29.01. 2:00 2(2100m)
Ortszeit Stationsdruck (hPa) Tendenz (hPa in 3 Std.)
Sa, 29.01. 7:00 791 - 0,2
Sa, 29.01. 1:00 791 + 1,2
Fr, 28.01. 19:00 791 + 1,3
Fr, 28.01. 13:00 790 + 1,4
Fr, 28.01. 7:00 787 - 0,3
Fr, 28.01. 1:00 789 - 0,5
Do, 27.01. 19:00 790 - 0,2
Do, 27.01. 13:00 791 - 0,2
Ortszeit Stationsdruck (hPa) Tendenz (hPa in 3 Std.)
Sa, 29.01. 8:00 791 - 0,1
Sa, 29.01. 7:00 791 - 0,2
Sa, 29.01. 6:00 791 - 0,6
Sa, 29.01. 5:00 791 - 0,1
Sa, 29.01. 4:00 791 + 0,2
Sa, 29.01. 3:00 792 + 0,8
Sa, 29.01. 2:00 791 + 0,8
Ortszeit Schneehöhe (cm)
Sa, 29.01. 7:00 34
Sa, 29.01. 1:00 -
Fr, 28.01. 19:00 -
Fr, 28.01. 13:00 -
Fr, 28.01. 7:00 34
Fr, 28.01. 1:00 -
Do, 27.01. 19:00 -
Do, 27.01. 13:00 -
Ortszeit Schneehöhe (cm)
Sa, 29.01. 8:00 -
Sa, 29.01. 7:00 34
Sa, 29.01. 6:00 -
Sa, 29.01. 5:00 -
Sa, 29.01. 4:00 -
Sa, 29.01. 3:00 -
Sa, 29.01. 2:00 -
Link zu dieser Seite / Seite empfehlen

Das Wetter in ...